createdAt,value
2018-08-11T00:02:11.406Z,99.90
2018-08-11T00:04:40.790Z,99.90
2018-08-11T00:07:09.598Z,99.90
2018-08-11T00:09:38.410Z,99.90
2018-08-11T00:12:07.305Z,99.90
2018-08-11T00:14:36.186Z,99.90
2018-08-11T00:17:05.117Z,99.90
2018-08-11T00:19:33.935Z,99.90
2018-08-11T00:22:02.745Z,99.90
2018-08-11T00:24:31.564Z,99.90
2018-08-11T00:27:00.378Z,99.90
2018-08-11T00:29:29.246Z,99.90
2018-08-11T00:31:58.034Z,99.90
2018-08-11T00:34:26.813Z,99.90
2018-08-11T00:36:55.562Z,99.90
2018-08-11T00:39:24.362Z,99.90
2018-08-11T00:41:53.514Z,99.90
2018-08-11T00:44:22.325Z,99.90
2018-08-11T00:46:51.138Z,99.90
2018-08-11T00:49:19.936Z,99.90
2018-08-11T00:51:48.793Z,99.90
2018-08-11T00:54:17.622Z,99.90
2018-08-11T00:56:46.506Z,99.90
2018-08-11T00:59:15.294Z,99.90
2018-08-11T01:01:44.150Z,99.90
2018-08-11T01:04:12.991Z,99.90
2018-08-11T01:06:41.790Z,99.90
2018-08-11T01:09:11.753Z,99.90
2018-08-11T01:11:40.656Z,99.90
2018-08-11T01:14:09.482Z,99.90
2018-08-11T01:16:38.243Z,99.90
2018-08-11T01:19:07.050Z,99.90
2018-08-11T01:21:35.886Z,99.90
2018-08-11T01:24:04.779Z,99.90
2018-08-11T01:26:33.552Z,99.90
2018-08-11T01:29:02.336Z,99.90
2018-08-11T01:31:31.082Z,99.90
2018-08-11T01:33:59.890Z,99.90
2018-08-11T01:36:28.658Z,99.90
2018-08-11T01:38:57.446Z,99.90
2018-08-11T01:41:26.210Z,99.90
2018-08-11T01:43:55.018Z,99.90
2018-08-11T01:46:23.822Z,99.90
2018-08-11T01:48:52.627Z,99.90
2018-08-11T01:51:21.390Z,99.90
2018-08-11T01:53:50.190Z,99.90
2018-08-11T01:56:18.990Z,99.90
2018-08-11T01:58:47.814Z,99.90
2018-08-11T02:01:16.602Z,99.90
2018-08-11T02:03:45.385Z,99.90
2018-08-11T02:06:14.206Z,99.90
2018-08-11T02:08:43.066Z,99.90
2018-08-11T02:11:11.923Z,99.90
2018-08-11T02:13:40.681Z,99.90
2018-08-11T02:16:09.519Z,99.90
2018-08-11T02:18:38.298Z,99.90
2018-08-11T02:21:07.150Z,99.90
2018-08-11T02:23:35.986Z,99.90
2018-08-11T02:26:04.844Z,99.90
2018-08-11T02:28:33.670Z,99.90
2018-08-11T02:31:02.506Z,99.90
2018-08-11T02:35:59.795Z,99.90
2018-08-11T02:38:28.622Z,99.90
2018-08-11T02:40:57.429Z,99.90
2018-08-11T02:43:26.281Z,99.90
2018-08-11T02:45:55.082Z,99.90
2018-08-11T02:48:23.926Z,99.90
2018-08-11T02:50:52.707Z,99.90
2018-08-11T02:53:21.486Z,99.90
2018-08-11T02:55:50.262Z,99.90
2018-08-11T02:58:19.041Z,99.90
2018-08-11T03:00:47.810Z,99.90
2018-08-11T03:03:16.578Z,99.90
2018-08-11T03:05:45.348Z,99.90
2018-08-11T03:08:14.121Z,99.90
2018-08-11T03:10:42.894Z,99.90
2018-08-11T03:13:11.668Z,99.90
2018-08-11T03:15:40.446Z,99.90
2018-08-11T03:18:09.230Z,99.90
2018-08-11T03:20:37.994Z,99.90
2018-08-11T03:23:06.962Z,99.90
2018-08-11T03:25:35.760Z,99.90
2018-08-11T03:28:04.569Z,99.90
2018-08-11T03:30:33.350Z,99.90
2018-08-11T03:33:02.126Z,99.90
2018-08-11T03:35:30.965Z,99.90
2018-08-11T03:37:59.982Z,99.90
2018-08-11T03:40:28.790Z,99.90
2018-08-11T03:42:57.577Z,99.90
2018-08-11T03:45:26.329Z,99.90
2018-08-11T03:47:55.114Z,99.90
2018-08-11T03:50:23.868Z,99.90
2018-08-11T03:52:52.630Z,99.90
2018-08-11T03:55:21.372Z,99.90
2018-08-11T03:57:50.169Z,99.90
2018-08-11T04:00:18.946Z,99.90
2018-08-11T04:02:47.753Z,99.90
2018-08-11T04:05:16.550Z,99.90
2018-08-11T04:07:45.660Z,99.90
2018-08-11T04:10:14.444Z,99.90
2018-08-11T04:12:43.219Z,99.90
2018-08-11T04:15:12.006Z,99.90
2018-08-11T04:17:41.519Z,99.90
2018-08-11T04:20:11.430Z,99.90
2018-08-11T04:22:40.235Z,99.90
2018-08-11T04:25:09.525Z,99.90
2018-08-11T04:27:38.716Z,99.90
2018-08-11T04:30:09.083Z,99.90
2018-08-11T04:32:37.889Z,99.90
2018-08-11T04:35:06.681Z,99.90
2018-08-11T04:37:35.534Z,99.90
2018-08-11T04:40:05.107Z,99.90
2018-08-11T04:42:33.922Z,99.90
2018-08-11T04:45:02.703Z,99.90
2018-08-11T04:47:31.496Z,99.90
2018-08-11T04:50:00.290Z,99.90
2018-08-11T04:52:29.119Z,99.90
2018-08-11T04:54:57.901Z,99.90
2018-08-11T04:57:26.681Z,99.90
2018-08-11T04:59:55.480Z,99.90
2018-08-11T05:02:24.255Z,99.90
2018-08-11T05:04:53.090Z,99.90
2018-08-11T05:07:21.918Z,99.90
2018-08-11T05:09:50.853Z,99.90
2018-08-11T05:12:19.727Z,99.90
2018-08-11T05:14:48.655Z,99.90
2018-08-11T05:17:17.446Z,99.90
2018-08-11T05:19:46.246Z,99.90
2018-08-11T05:22:15.014Z,99.90
2018-08-11T05:24:43.777Z,99.90
2018-08-11T05:27:12.547Z,99.90
2018-08-11T05:29:41.356Z,99.90
2018-08-11T05:32:10.129Z,99.90
2018-08-11T05:34:38.921Z,99.90
2018-08-11T05:37:07.939Z,99.90
2018-08-11T05:39:36.714Z,99.90
2018-08-11T05:42:05.465Z,99.90
2018-08-11T05:44:34.245Z,99.90
2018-08-11T05:47:03.134Z,99.90
2018-08-11T05:49:31.921Z,99.90
2018-08-11T05:52:00.709Z,99.90
2018-08-11T05:54:29.485Z,99.90
2018-08-11T05:56:58.249Z,99.90
2018-08-11T05:59:27.010Z,99.90
2018-08-11T06:01:55.796Z,99.90
2018-08-11T06:04:24.536Z,99.90
2018-08-11T06:06:53.334Z,99.90
2018-08-11T06:09:22.118Z,99.90
2018-08-11T06:11:50.942Z,99.90
2018-08-11T06:14:19.800Z,99.90
2018-08-11T06:16:48.544Z,99.90
2018-08-11T06:19:17.338Z,99.90
2018-08-11T06:21:46.112Z,99.90
2018-08-11T06:24:14.875Z,99.90
2018-08-11T06:26:43.665Z,99.90
2018-08-11T06:29:12.475Z,99.90
2018-08-11T06:31:41.344Z,99.90
2018-08-11T06:34:10.097Z,99.90
2018-08-11T06:36:38.906Z,99.90
2018-08-11T06:39:11.114Z,99.90
2018-08-11T06:41:39.890Z,99.90
2018-08-11T06:44:08.794Z,99.90
2018-08-11T06:46:37.589Z,99.90
2018-08-11T06:49:06.567Z,99.90
2018-08-11T06:51:35.386Z,99.90
2018-08-11T06:54:04.198Z,99.90
2018-08-11T06:56:33.362Z,99.90
2018-08-11T06:59:02.234Z,99.90
2018-08-11T07:01:31.056Z,99.90
2018-08-11T07:03:59.937Z,99.90
2018-08-11T07:06:29.065Z,99.90
2018-08-11T07:08:58.117Z,99.90
2018-08-11T07:11:26.919Z,99.90
2018-08-11T07:13:55.709Z,99.90
2018-08-11T07:16:24.541Z,99.90
2018-08-11T07:18:53.985Z,99.90
2018-08-11T07:21:22.902Z,99.90
2018-08-11T07:23:51.657Z,99.90
2018-08-11T07:26:20.500Z,99.90
2018-08-11T07:28:49.054Z,99.90
2018-08-11T07:31:17.986Z,99.90
2018-08-11T07:33:46.768Z,99.90
2018-08-11T07:36:15.966Z,99.90
2018-08-11T07:38:44.758Z,99.90
2018-08-11T07:41:13.582Z,99.90
2018-08-11T07:43:42.390Z,99.90
2018-08-11T07:46:11.155Z,99.90
2018-08-11T07:48:39.955Z,99.90
2018-08-11T07:51:08.750Z,99.90
2018-08-11T07:53:37.514Z,99.90
2018-08-11T07:56:06.408Z,99.90
2018-08-11T07:58:35.442Z,99.90
2018-08-11T08:01:04.298Z,99.90
2018-08-11T08:03:33.118Z,99.90
2018-08-11T08:06:02.036Z,99.90
2018-08-11T08:08:30.826Z,99.90
2018-08-11T08:10:59.610Z,99.90
2018-08-11T08:13:28.366Z,99.90
2018-08-11T08:15:57.284Z,99.90
2018-08-11T08:18:26.077Z,99.90
2018-08-11T08:20:54.858Z,99.90
2018-08-11T08:23:23.662Z,99.90
2018-08-11T08:25:52.762Z,99.90
2018-08-11T08:28:21.590Z,99.90
2018-08-11T08:30:50.394Z,99.90
2018-08-11T08:33:19.461Z,99.90
2018-08-11T08:35:48.350Z,99.90
2018-08-11T08:38:17.145Z,99.90
2018-08-11T08:40:45.915Z,99.90
2018-08-11T08:43:14.960Z,99.90
2018-08-11T08:45:43.761Z,99.90
2018-08-11T08:48:12.560Z,99.90
2018-08-11T08:50:41.306Z,99.90
2018-08-11T08:53:10.114Z,99.90
2018-08-11T08:55:38.911Z,99.90
2018-08-11T08:58:07.762Z,99.90
2018-08-11T09:00:36.488Z,99.90
2018-08-11T09:03:05.322Z,99.90
2018-08-11T09:05:34.173Z,99.90
2018-08-11T09:08:02.947Z,99.90
2018-08-11T09:10:32.023Z,99.90
2018-08-11T09:13:00.815Z,99.90
2018-08-11T09:15:29.907Z,99.90
2018-08-11T09:17:58.701Z,99.90
2018-08-11T09:20:27.508Z,99.90
2018-08-11T09:22:56.307Z,99.90
2018-08-11T09:25:25.091Z,99.90
2018-08-11T09:27:53.902Z,99.90
2018-08-11T09:30:22.723Z,99.90
2018-08-11T09:32:51.486Z,99.90
2018-08-11T09:35:20.316Z,99.90
2018-08-11T09:37:49.452Z,99.90
2018-08-11T09:40:18.277Z,99.90
2018-08-11T09:42:47.085Z,99.90
2018-08-11T09:45:15.890Z,99.90
2018-08-11T09:47:44.704Z,99.90
2018-08-11T09:50:13.484Z,99.90
2018-08-11T09:52:42.318Z,99.90
2018-08-11T09:55:11.132Z,99.90
2018-08-11T09:57:40.295Z,99.90
2018-08-11T10:00:10.010Z,99.90
2018-08-11T10:02:38.796Z,99.90
2018-08-11T10:05:07.615Z,99.90
2018-08-11T10:07:36.730Z,99.90
2018-08-11T10:10:05.919Z,99.90
2018-08-11T10:12:34.747Z,99.90
2018-08-11T10:15:03.630Z,99.90
2018-08-11T10:17:32.422Z,99.90
2018-08-11T10:20:01.210Z,99.90
2018-08-11T10:22:30.011Z,99.90
2018-08-11T10:24:58.793Z,99.90
2018-08-11T10:27:27.887Z,99.90
2018-08-11T10:29:56.700Z,99.90
2018-08-11T10:32:25.863Z,99.90
2018-08-11T10:34:54.646Z,98.20
2018-08-11T10:37:23.741Z,99.00
2018-08-11T10:39:53.678Z,99.20
2018-08-11T10:42:22.462Z,98.60
2018-08-11T10:44:51.275Z,96.80
2018-08-11T10:47:20.074Z,96.60
2018-08-11T10:49:48.948Z,97.00
2018-08-11T10:52:17.769Z,97.60
2018-08-11T10:54:46.606Z,98.60
2018-08-11T10:57:15.398Z,98.30
2018-08-11T10:59:44.216Z,98.20
2018-08-11T11:02:13.031Z,97.60
2018-08-11T11:04:41.834Z,97.00
2018-08-11T11:07:10.984Z,97.80
2018-08-11T11:09:39.855Z,98.80
2018-08-11T11:12:08.953Z,99.90
2018-08-11T11:14:37.858Z,99.90
2018-08-11T11:17:06.614Z,99.90
2018-08-11T11:19:35.422Z,99.90
2018-08-11T11:22:04.214Z,99.60
2018-08-11T11:24:32.990Z,99.90
2018-08-11T11:27:01.814Z,99.90
2018-08-11T11:29:30.581Z,99.50
2018-08-11T11:31:59.399Z,99.30
2018-08-11T11:34:28.192Z,99.10
2018-08-11T11:36:56.998Z,99.00
2018-08-11T11:39:25.766Z,98.30
2018-08-11T11:41:54.538Z,98.70
2018-08-11T11:44:23.326Z,98.40
2018-08-11T11:46:52.086Z,96.00
2018-08-11T11:49:21.158Z,97.30
2018-08-11T11:51:49.946Z,97.10
2018-08-11T11:54:25.325Z,96.50
2018-08-11T11:56:54.145Z,96.20
2018-08-11T11:59:22.925Z,96.00
2018-08-11T12:01:51.694Z,95.90
2018-08-11T12:04:20.499Z,97.60
2018-08-11T12:06:49.271Z,97.50
2018-08-11T12:09:18.049Z,95.40
2018-08-11T12:11:46.842Z,95.00
2018-08-11T12:14:15.622Z,96.00
2018-08-11T12:16:44.346Z,97.40
2018-08-11T12:19:13.155Z,97.20
2018-08-11T12:21:41.912Z,98.40
2018-08-11T12:24:10.688Z,98.70
2018-08-11T12:26:39.504Z,99.00
2018-08-11T12:29:08.717Z,99.90
2018-08-11T12:31:37.463Z,99.90
2018-08-11T12:34:06.267Z,99.90
2018-08-11T12:36:35.141Z,99.90
2018-08-11T12:39:06.308Z,99.90
2018-08-11T12:41:35.100Z,99.90
2018-08-11T12:44:03.927Z,99.90
2018-08-11T12:46:32.700Z,99.90
2018-08-11T12:49:01.486Z,99.90
2018-08-11T12:51:30.613Z,99.90
2018-08-11T12:53:59.397Z,99.30
2018-08-11T12:56:28.237Z,97.50
2018-08-11T12:58:57.001Z,96.80
2018-08-11T13:01:25.820Z,95.70
2018-08-11T13:03:54.709Z,98.40
2018-08-11T13:06:23.500Z,99.90
2018-08-11T13:08:53.017Z,99.90
2018-08-11T13:11:21.796Z,99.90
2018-08-11T13:13:50.543Z,99.90
2018-08-11T13:16:19.406Z,99.90
2018-08-11T13:18:48.191Z,99.90
2018-08-11T13:21:17.005Z,99.90
2018-08-11T13:23:45.841Z,99.90
2018-08-11T13:26:14.602Z,99.90
2018-08-11T13:28:43.370Z,99.90
2018-08-11T13:31:12.199Z,99.90
2018-08-11T13:33:40.995Z,99.90
2018-08-11T13:36:09.855Z,99.90
2018-08-11T13:38:38.667Z,99.90
2018-08-11T13:41:07.563Z,99.90
2018-08-11T13:43:36.391Z,99.90
2018-08-11T13:46:05.177Z,99.90
2018-08-11T13:48:33.987Z,99.90
2018-08-11T13:51:03.207Z,99.90
2018-08-11T13:53:32.054Z,99.90
2018-08-11T13:56:00.862Z,99.90
2018-08-11T13:58:30.194Z,99.90
2018-08-11T14:00:59.026Z,99.90
2018-08-11T14:03:27.802Z,99.90
2018-08-11T14:05:56.597Z,99.90
2018-08-11T14:10:53.886Z,99.90
2018-08-11T14:13:22.719Z,99.90
2018-08-11T14:15:51.906Z,99.90
2018-08-11T14:18:20.641Z,99.90
2018-08-11T14:20:49.426Z,99.90
2018-08-11T14:23:18.238Z,99.90
2018-08-11T14:25:47.720Z,99.90
2018-08-11T14:28:16.498Z,99.90
2018-08-11T14:30:45.623Z,99.90
2018-08-11T14:33:14.446Z,99.90
2018-08-11T14:35:43.297Z,99.90
2018-08-11T14:38:12.217Z,99.90
2018-08-11T14:40:41.635Z,99.90
2018-08-11T14:43:10.439Z,99.90
2018-08-11T14:45:39.291Z,99.90
2018-08-11T14:48:08.190Z,99.90
2018-08-11T14:50:37.261Z,99.90
2018-08-11T14:53:06.203Z,99.90
2018-08-11T14:55:35.046Z,99.90
2018-08-11T14:58:03.869Z,99.90
2018-08-11T15:00:32.681Z,99.90
2018-08-11T15:03:01.498Z,99.90
2018-08-11T15:05:30.386Z,99.90
2018-08-11T15:07:59.500Z,99.90
2018-08-11T15:10:28.286Z,99.90
2018-08-11T15:12:57.078Z,99.90
2018-08-11T15:15:25.862Z,99.90
2018-08-11T15:17:54.718Z,99.90
2018-08-11T15:20:23.609Z,99.90
2018-08-11T15:22:52.460Z,99.90
2018-08-11T15:25:21.282Z,99.90
2018-08-11T15:27:50.079Z,99.90
2018-08-11T15:30:18.926Z,99.90
2018-08-11T15:32:47.726Z,99.90
2018-08-11T15:35:16.496Z,99.90
2018-08-11T15:37:45.874Z,99.90
2018-08-11T15:40:14.645Z,99.90
2018-08-11T15:42:43.506Z,99.90
2018-08-11T15:45:12.390Z,99.90
2018-08-11T15:47:41.220Z,99.90
2018-08-11T15:50:10.038Z,99.90
2018-08-11T15:52:38.859Z,99.90
2018-08-11T15:55:07.670Z,99.90
2018-08-11T15:57:36.484Z,99.90
2018-08-11T16:00:06.519Z,99.90
2018-08-11T16:02:35.312Z,99.90
2018-08-11T16:05:04.273Z,99.90
2018-08-11T16:07:33.069Z,99.90
2018-08-11T16:10:01.857Z,99.90
2018-08-11T16:12:30.919Z,99.90
2018-08-11T16:14:59.686Z,99.90
2018-08-11T16:17:28.914Z,99.90
2018-08-11T16:19:57.702Z,99.90
2018-08-11T16:22:26.511Z,99.90
2018-08-11T16:24:55.306Z,99.90
2018-08-11T16:27:24.126Z,99.90
2018-08-11T16:29:52.935Z,99.90
2018-08-11T16:32:21.765Z,99.90
2018-08-11T16:34:50.546Z,99.90
2018-08-11T16:37:19.358Z,99.90
2018-08-11T16:39:48.119Z,99.90
2018-08-11T16:42:17.321Z,99.90
2018-08-11T16:44:46.138Z,99.90
2018-08-11T16:47:14.990Z,99.90
2018-08-11T16:49:43.782Z,99.90
2018-08-11T16:52:12.970Z,99.90
2018-08-11T16:54:41.810Z,99.90
2018-08-11T16:57:10.670Z,99.90
2018-08-11T16:59:39.471Z,99.90
2018-08-11T17:02:08.278Z,99.90
2018-08-11T17:04:37.069Z,99.90
2018-08-11T17:07:05.938Z,99.90
2018-08-11T17:09:34.728Z,99.90
2018-08-11T17:12:03.530Z,99.90
2018-08-11T17:14:32.305Z,99.90
2018-08-11T17:17:01.083Z,99.90
2018-08-11T17:19:29.862Z,99.90
2018-08-11T17:21:58.649Z,99.90
2018-08-11T17:24:27.465Z,99.90
2018-08-11T17:26:56.307Z,99.90
2018-08-11T17:29:25.094Z,99.90
2018-08-11T17:31:54.263Z,99.90
2018-08-11T17:34:23.094Z,99.90
2018-08-11T17:36:51.942Z,99.90
2018-08-11T17:39:20.724Z,99.90
2018-08-11T17:41:49.518Z,99.90
2018-08-11T17:44:18.309Z,99.90
2018-08-11T17:46:47.107Z,99.90
2018-08-11T17:49:15.972Z,99.90
2018-08-11T17:51:44.791Z,99.90
2018-08-11T17:54:13.623Z,99.90
2018-08-11T17:56:42.722Z,99.90
2018-08-11T17:59:11.531Z,99.90
2018-08-11T18:01:40.664Z,99.90
2018-08-11T18:04:09.462Z,99.90
2018-08-11T18:06:38.255Z,99.90
2018-08-11T18:09:13.678Z,99.90
2018-08-11T18:11:42.494Z,99.90
2018-08-11T18:14:11.718Z,99.90
2018-08-11T18:16:40.542Z,99.90
2018-08-11T18:19:09.326Z,99.90
2018-08-11T18:21:38.146Z,99.90
2018-08-11T18:24:07.424Z,99.90
2018-08-11T18:26:36.206Z,99.90
2018-08-11T18:29:05.159Z,99.90
2018-08-11T18:31:34.200Z,99.90
2018-08-11T18:34:03.001Z,99.90
2018-08-11T18:36:32.061Z,99.90
2018-08-11T18:39:00.879Z,99.90
2018-08-11T18:41:29.644Z,99.90
2018-08-11T18:43:58.747Z,99.90
2018-08-11T18:46:27.887Z,99.90
2018-08-11T18:48:57.098Z,99.90
2018-08-11T18:51:26.182Z,99.90
2018-08-11T18:53:55.419Z,99.90
2018-08-11T18:56:24.566Z,99.90
2018-08-11T18:58:54.554Z,99.90
2018-08-11T19:01:23.867Z,99.90
2018-08-11T19:03:53.077Z,99.90
2018-08-11T19:06:22.390Z,99.90
2018-08-11T19:08:51.581Z,99.90
2018-08-11T19:11:20.676Z,99.90
2018-08-11T19:13:49.766Z,99.90
2018-08-11T19:16:18.971Z,99.90
2018-08-11T19:18:48.165Z,99.90
2018-08-11T19:21:17.296Z,99.90
2018-08-11T19:23:46.466Z,99.90
2018-08-11T19:26:16.119Z,99.90
2018-08-11T19:28:45.250Z,99.90
2018-08-11T19:31:14.341Z,99.90
2018-08-11T19:33:44.174Z,99.90
2018-08-11T19:36:13.467Z,99.90
2018-08-11T19:38:42.666Z,99.90
2018-08-11T19:41:12.147Z,99.90
2018-08-11T19:43:40.982Z,99.90
2018-08-11T19:46:10.180Z,99.90
2018-08-11T19:48:39.287Z,99.90
2018-08-11T19:51:08.094Z,99.90
2018-08-11T19:53:37.232Z,99.90
2018-08-11T19:56:06.088Z,99.90
2018-08-11T19:58:35.096Z,99.90
2018-08-11T20:01:03.992Z,99.90
2018-08-11T20:03:32.798Z,99.90
2018-08-11T20:06:01.947Z,99.90
2018-08-11T20:08:31.017Z,99.90
2018-08-11T20:10:59.778Z,99.90
2018-08-11T20:13:28.562Z,99.90
2018-08-11T20:15:57.394Z,99.90
2018-08-11T20:18:26.178Z,99.90
2018-08-11T20:20:54.979Z,99.90
2018-08-11T20:23:23.777Z,99.90
2018-08-11T20:25:52.910Z,99.90
2018-08-11T20:28:21.789Z,99.90
2018-08-11T20:30:50.885Z,99.90
2018-08-11T20:33:19.686Z,99.90
2018-08-11T20:35:48.634Z,99.90
2018-08-11T20:38:17.738Z,99.90
2018-08-11T20:40:46.678Z,99.90
2018-08-11T20:43:15.498Z,99.90
2018-08-11T20:45:44.315Z,99.90
2018-08-11T20:48:13.191Z,99.90
2018-08-11T20:50:41.983Z,99.90
2018-08-11T20:53:10.824Z,99.90
2018-08-11T20:55:40.842Z,99.90
2018-08-11T20:58:09.702Z,99.90
2018-08-11T21:00:38.499Z,99.90
2018-08-11T21:03:10.078Z,99.90
2018-08-11T21:05:39.155Z,99.90
2018-08-11T21:08:08.103Z,99.90
2018-08-11T21:10:36.973Z,99.90
2018-08-11T21:13:05.827Z,99.90
2018-08-11T21:15:34.684Z,99.90
2018-08-11T21:18:03.871Z,99.90
2018-08-11T21:20:32.657Z,99.90
2018-08-11T21:23:01.468Z,99.90
2018-08-11T21:25:30.247Z,99.90
2018-08-11T21:27:59.055Z,99.90
2018-08-11T21:30:27.839Z,99.90
2018-08-11T21:32:56.659Z,99.90
2018-08-11T21:35:25.470Z,99.90
2018-08-11T21:37:54.268Z,99.90
2018-08-11T21:40:23.119Z,99.90
2018-08-11T21:42:51.933Z,99.90
2018-08-11T21:45:20.737Z,99.90
2018-08-11T21:47:49.573Z,99.90
2018-08-11T21:50:18.393Z,99.90
2018-08-11T21:52:47.447Z,99.90
2018-08-11T21:55:16.300Z,99.90
2018-08-11T21:57:45.094Z,99.90
2018-08-11T22:00:35.854Z,99.90
2018-08-11T22:03:05.545Z,99.90
2018-08-11T22:05:34.387Z,99.90
2018-08-11T22:08:03.641Z,99.90
2018-08-11T22:10:32.513Z,99.90
2018-08-11T22:13:01.389Z,99.90
2018-08-11T22:15:30.192Z,99.90
2018-08-11T22:17:59.043Z,99.90
2018-08-11T22:20:27.894Z,99.90
2018-08-11T22:22:56.798Z,99.90
2018-08-11T22:25:25.567Z,99.90
2018-08-11T22:27:54.373Z,99.90
2018-08-11T22:30:23.222Z,99.90
2018-08-11T22:32:52.089Z,99.90
2018-08-11T22:35:20.899Z,99.90
2018-08-11T22:37:49.758Z,99.90
2018-08-11T22:40:18.609Z,99.90
2018-08-11T22:42:47.471Z,99.90
2018-08-11T22:45:16.338Z,99.90
2018-08-11T22:47:45.183Z,99.90
2018-08-11T22:50:14.918Z,99.90
2018-08-11T22:52:43.750Z,99.90
2018-08-11T22:55:12.588Z,99.90
2018-08-11T22:57:41.421Z,99.90
2018-08-11T23:00:21.220Z,99.90
2018-08-11T23:02:50.119Z,99.90
2018-08-11T23:05:20.236Z,99.90
2018-08-11T23:07:49.062Z,99.90
2018-08-11T23:10:18.301Z,99.90
2018-08-11T23:12:47.553Z,99.90
2018-08-11T23:15:18.577Z,99.90
2018-08-11T23:17:48.709Z,99.90
2018-08-11T23:20:17.605Z,99.90
2018-08-11T23:22:46.897Z,99.90
2018-08-11T23:25:16.299Z,99.90
2018-08-11T23:27:45.194Z,99.90
2018-08-11T23:30:15.930Z,99.90
2018-08-11T23:32:45.114Z,99.90
2018-08-11T23:35:14.314Z,99.90
2018-08-11T23:37:43.510Z,99.90
2018-08-11T23:40:12.421Z,99.90
2018-08-11T23:42:41.291Z,99.90
2018-08-11T23:45:13.051Z,99.90
2018-08-11T23:47:42.358Z,99.90
2018-08-11T23:50:12.266Z,99.90
2018-08-11T23:52:42.030Z,99.90
2018-08-11T23:55:12.050Z,99.90
2018-08-11T23:57:40.876Z,99.90
